Terminal Aerodrome Forecast
Issued by NWS

Home | Current Version | Previous Version | Text Only | Print | Product List | Glossary On
Versions: 1 2 3 4 5 6 7 8 9 10 11 12 13 14 15 16 17 18 19 20 21 22 23 24 25 26 27 28 29 30 31 32
448
FTUS46 KMTR 240920 AAA
TAFSFO
TAF AMD
KSFO 240920Z 2409/2512 13008KT P6SM VCSH FEW030 SCT200
     FM241200 11004KT P6SM FEW035 BKN050
     FM241600 08004KT P6SM SKC
     FM242000 VRB03KT P6SM SKC
     FM250200 28006KT P6SM SKC=

USA.gov is the U.S. government's official web portal to all federal, state and local government web resources and services.